Time;durP1;ratioP1;P1;durP2;ratioP2;P2;SDS_P1;SDS_P2;PMS_P1;PMS_P2;Temp;Humidity;BMP_temperature;BMP_pressure;BME280_temperature;BME280_humidity;BME280_pressure;Samples;Min_cycle;Max_cycle;Signal;HPM_P1;HPM_P2
2021/05/24 00:01:01;;;;;;;16.07;6.22;;;;;;;16.19;51.90;99308.03;1755572;80;21060;-41
2021/05/24 00:03:28;;;;;;;11.70;5.92;;;;;;;16.16;52.20;99305.52;1754073;80;21694;-42
2021/05/24 00:05:54;;;;;;;11.00;5.75;;;;;;;16.16;52.80;99306.09;1744467;80;21015;-42
2021/05/24 00:08:21;;;;;;;12.00;5.97;;;;;;;16.17;52.68;99314.50;1744310;80;20984;-42
2021/05/24 00:10:48;;;;;;;10.15;5.53;;;;;;;16.18;53.45;99328.34;1744719;80;21644;-42
2021/05/24 00:13:18;;;;;;;8.93;5.45;;;;;;;16.19;53.43;99336.16;1744331;80;21027;-42
2021/05/24 00:15:47;;;;;;;10.30;5.08;;;;;;;16.23;53.97;99356.66;1769631;80;21601;-42
2021/05/24 00:18:15;;;;;;;14.38;6.05;;;;;;;16.25;54.35;99369.36;1762677;80;21077;-42
2021/05/24 00:20:52;;;;;;;10.85;5.75;;;;;;;16.23;54.00;99384.01;1767489;80;20989;-42
2021/05/24 00:23:20;;;;;;;11.45;5.72;;;;;;;16.20;53.38;99393.80;1743174;80;21604;-42
2021/05/24 00:25:48;;;;;;;10.90;5.50;;;;;;;16.16;53.54;99402.61;1755065;80;21018;-42
2021/05/24 00:28:15;;;;;;;10.80;5.28;;;;;;;16.18;54.57;99411.77;1768873;80;21826;-42
2021/05/24 00:30:45;;;;;;;8.83;5.55;;;;;;;16.21;55.32;99413.73;1758758;80;21026;-42
2021/05/24 00:33:12;;;;;;;9.20;5.42;;;;;;;16.22;54.45;99415.27;1758926;80;21003;-42
2021/05/24 00:35:41;;;;;;;11.80;5.72;;;;;;;16.22;53.57;99422.89;1756085;80;21023;-42
2021/05/24 00:38:08;;;;;;;8.85;5.80;;;;;;;16.25;54.62;99428.95;1764779;80;21087;-42
2021/05/24 00:40:37;;;;;;;12.85;5.75;;;;;;;16.28;55.41;99424.64;1739230;80;20960;-42
2021/05/24 00:43:05;;;;;;;9.00;5.45;;;;;;;16.28;56.70;99429.52;1771703;81;20991;-42
2021/05/24 00:45:33;;;;;;;9.03;5.30;;;;;;;16.28;57.12;99435.00;1771436;80;21027;-42
2021/05/24 00:47:59;;;;;;;9.25;5.30;;;;;;;16.30;56.99;99438.72;1762892;80;21027;-43
2021/05/24 00:50:26;;;;;;;9.63;4.65;;;;;;;16.28;57.35;99445.94;1750870;80;20951;-42
2021/05/24 00:52:53;;;;;;;8.38;4.83;;;;;;;16.30;57.74;99446.92;1754602;80;21167;-42
2021/05/24 00:55:19;;;;;;;8.48;4.72;;;;;;;16.29;56.00;99457.66;1742467;82;21566;-41
2021/05/24 00:57:46;;;;;;;10.00;3.47;;;;;;;16.27;55.42;99457.27;1769610;80;21589;-42
2021/05/24 01:00:26;;;;;;;6.35;2.87;;;;;;;16.18;52.28;99469.99;1765499;80;20980;-42
2021/05/24 01:02:56;;;;;;;5.92;3.12;;;;;;;16.08;51.21;99471.58;1705234;84;21024;-41
2021/05/24 01:05:24;;;;;;;6.90;3.10;;;;;;;16.01;50.82;99471.60;1753483;80;21033;-42
2021/05/24 01:07:51;;;;;;;5.25;3.10;;;;;;;15.97;51.66;99477.66;1764005;80;20991;-41
2021/05/24 01:10:19;;;;;;;4.83;3.10;;;;;;;15.90;53.12;99477.66;1753092;80;21114;-42
2021/05/24 01:12:46;;;;;;;4.35;2.92;;;;;;;15.86;54.24;99482.36;1765382;80;21019;-42
2021/05/24 01:15:14;;;;;;;8.18;3.10;;;;;;;15.85;54.94;99479.42;1767855;80;20991;-42
2021/05/24 01:17:41;;;;;;;4.33;3.08;;;;;;;15.86;54.93;99478.25;1747737;80;21757;-42
2021/05/24 01:20:09;;;;;;;5.10;2.95;;;;;;;15.86;56.26;99478.25;1759353;80;20999;-42
2021/05/24 01:22:38;;;;;;;4.95;3.00;;;;;;;15.86;57.35;99479.62;1747580;80;21581;-42
2021/05/24 01:25:06;;;;;;;6.15;2.85;;;;;;;15.78;58.42;99483.51;1770682;80;20999;-42
2021/05/24 01:27:34;;;;;;;9.48;3.47;;;;;;;15.72;58.53;99485.09;1769688;79;21533;-42
2021/05/24 01:30:01;;;;;;;3.83;2.95;;;;;;;15.65;58.95;99485.08;1709532;82;21088;-42
2021/05/24 01:32:28;;;;;;;4.75;2.77;;;;;;;15.57;59.42;99488.98;1752153;80;21051;-42
2021/05/24 01:34:55;;;;;;;7.42;3.10;;;;;;;15.55;60.76;99483.12;1742506;82;21632;-42
2021/05/24 01:37:22;;;;;;;5.35;3.08;;;;;;;15.55;62.19;99481.17;1744273;80;21086;-42
2021/05/24 01:39:48;;;;;;;6.25;2.98;;;;;;;15.55;63.13;99483.12;1743114;80;21067;-42
2021/05/24 01:42:16;;;;;;;6.95;3.20;;;;;;;15.59;63.94;99485.27;1748677;80;21683;-42
2021/05/24 01:44:43;;;;;;;4.30;3.08;;;;;;;15.64;64.81;99488.97;1770808;80;20976;-42
2021/05/24 01:47:09;;;;;;;7.60;3.55;;;;;;;15.62;65.39;99484.50;1749467;80;21058;-42
2021/05/24 01:49:37;;;;;;;7.25;3.25;;;;;;;15.61;66.06;99482.93;1758135;80;21027;-42
2021/05/24 01:52:06;;;;;;;6.03;3.60;;;;;;;15.59;66.40;99481.95;1769426;80;21019;-42
2021/05/24 01:54:32;;;;;;;6.80;3.45;;;;;;;15.56;66.60;99478.64;1769008;80;21059;-42
2021/05/24 01:56:59;;;;;;;6.17;3.42;;;;;;;15.59;66.99;99482.53;1691785;84;21029;-42
2021/05/24 01:59:26;;;;;;;9.45;3.30;;;;;;;15.57;67.06;99478.84;1750813;80;21525;-42
2021/05/24 02:01:53;;;;;;;5.30;3.02;;;;;;;15.60;66.78;99477.27;1765842;80;22176;-42
2021/05/24 02:04:19;;;;;;;6.45;3.70;;;;;;;15.62;66.54;99483.92;1766505;80;21047;-42
2021/05/24 02:06:46;;;;;;;7.33;3.20;;;;;;;15.65;66.20;99480.98;1773365;80;21063;-42
2021/05/24 02:09:13;;;;;;;4.05;2.92;;;;;;;15.68;65.95;99487.63;1768995;80;21605;-42
2021/05/24 02:11:41;;;;;;;6.08;3.30;;;;;;;15.71;65.54;99484.89;1770122;80;21020;-42
2021/05/24 02:14:09;;;;;;;8.08;3.40;;;;;;;15.75;65.27;99491.13;1759158;80;21613;-42
2021/05/24 02:16:45;;;;;;;4.75;3.37;;;;;;;15.77;65.47;99488.80;1704918;84;21048;-42
2021/05/24 02:19:15;;;;;;;6.47;3.45;;;;;;;15.77;65.51;99492.13;1744227;80;21870;-42
2021/05/24 02:21:42;;;;;;;6.10;3.45;;;;;;;15.69;65.50;99483.70;1753278;80;21047;-42
2021/05/24 02:24:10;;;;;;;6.15;3.50;;;;;;;15.64;65.79;99480.77;1769959;80;21170;-42
2021/05/24 02:26:38;;;;;;;4.87;3.00;;;;;;;15.64;65.85;99488.39;1744719;80;21851;-42
2021/05/24 02:29:05;;;;;;;5.85;3.30;;;;;;;15.60;65.80;99482.73;1746381;80;21762;-42
2021/05/24 02:31:37;;;;;;;3.83;3.08;;;;;;;15.55;65.91;99480.38;1745699;80;21090;-42
2021/05/24 02:34:05;;;;;;;8.45;3.47;;;;;;;15.44;65.74;99479.59;1762613;79;20976;-42
2021/05/24 02:36:33;;;;;;;7.90;3.50;;;;;;;15.32;66.09;99486.19;1766480;80;21020;-42
2021/05/24 02:39:04;;;;;;;5.95;3.50;;;;;;;15.22;66.25;99486.37;1704998;84;21016;-42
2021/05/24 02:41:31;;;;;;;8.33;3.47;;;;;;;15.12;66.46;99478.93;1766844;80;20952;-42
2021/05/24 02:43:57;;;;;;;4.75;3.60;;;;;;;15.07;66.64;99482.62;1706675;83;21163;-43
2021/05/24 02:46:24;;;;;;;7.50;3.65;;;;;;;15.01;66.65;99483.57;1716777;82;21005;-42
2021/05/24 02:48:51;;;;;;;6.10;3.50;;;;;;;14.91;66.59;99484.31;1700382;83;20909;-42
2021/05/24 02:51:18;;;;;;;7.00;3.95;;;;;;;14.83;67.08;99485.47;1735629;82;21559;-42
2021/05/24 02:53:45;;;;;;;5.72;3.45;;;;;;;14.74;67.12;99486.41;1713860;82;21064;-42
2021/05/24 02:56:12;;;;;;;6.45;3.85;;;;;;;14.66;67.44;99488.34;1737150;82;21096;-42
2021/05/24 02:58:39;;;;;;;8.58;3.55;;;;;;;14.62;67.96;99492.97;1718760;83;21019;-42
2021/05/24 03:01:05;;;;;;;5.62;3.10;;;;;;;14.63;68.17;99485.58;1695000;83;21007;-42
2021/05/24 03:03:33;;;;;;;6.75;3.27;;;;;;;14.60;68.50;99488.50;1739354;82;21038;-42
2021/05/24 03:06:02;;;;;;;5.40;3.08;;;;;;;14.59;68.81;99486.93;1724938;82;21088;-42
2021/05/24 03:08:31;;;;;;;5.35;2.83;;;;;;;14.56;68.74;99499.98;1738853;82;21129;-42
2021/05/24 03:10:58;;;;;;;6.50;3.22;;;;;;;14.58;68.53;99502.31;1726750;82;21626;-42
2021/05/24 03:13:26;;;;;;;6.62;3.10;;;;;;;14.61;68.67;99501.56;1719998;82;20985;-42
2021/05/24 03:15:53;;;;;;;5.85;3.08;;;;;;;14.62;68.70;99503.13;1735310;82;21116;-42
2021/05/24 03:18:20;;;;;;;4.22;2.62;;;;;;;14.57;68.68;99504.86;1736342;82;21581;-42
2021/05/24 03:20:47;;;;;;;5.70;2.58;;;;;;;14.52;68.59;99501.91;1734037;82;21094;-42
2021/05/24 03:23:14;;;;;;;5.40;2.37;;;;;;;14.48;68.53;99503.03;1741510;82;21116;-40
2021/05/24 03:25:41;;;;;;;4.15;2.20;;;;;;;14.47;68.50;99508.31;1727029;82;21658;-40
2021/05/24 03:28:07;;;;;;;3.42;2.47;;;;;;;14.40;68.77;99509.05;1718567;83;21614;-40
2021/05/24 03:30:34;;;;;;;3.85;2.33;;;;;;;14.00;69.14;99460.84;1743311;82;21690;-40
2021/05/24 03:33:01;;;;;;;6.10;2.60;;;;;;;14.24;69.20;99514.76;1713046;83;21100;-40
2021/05/24 03:35:28;;;;;;;3.20;2.00;;;;;;;14.18;69.43;99513.56;1699556;82;21107;-40
2021/05/24 03:37:55;;;;;;;3.62;2.12;;;;;;;14.16;69.82;99516.45;1719190;83;21023;-40
2021/05/24 03:40:22;;;;;;;4.45;2.62;;;;;;;14.14;69.89;99516.83;1737827;82;20999;-40
2021/05/24 03:42:49;;;;;;;4.37;2.60;;;;;;;14.10;70.54;99518.75;1750085;82;20999;-40
2021/05/24 03:45:22;;;;;;;3.85;2.50;;;;;;;14.08;70.72;99523.81;1740072;81;21938;-40
2021/05/24 03:47:48;;;;;;;4.50;2.70;;;;;;;14.07;70.84;99520.87;1711991;83;21007;-40
2021/05/24 03:50:16;;;;;;;5.78;2.80;;;;;;;14.09;70.95;99523.20;1712229;82;21581;-40
2021/05/24 03:52:43;;;;;;;6.25;2.92;;;;;;;14.08;71.26;99525.18;1748492;80;21059;-40
2021/05/24 03:55:13;;;;;;;3.80;3.12;;;;;;;14.06;71.23;99528.85;1748137;80;21014;-40
2021/05/24 03:57:40;;;;;;;4.95;2.90;;;;;;;14.00;71.18;99518.09;1748069;82;21068;-40
2021/05/24 04:00:09;;;;;;;4.45;3.05;;;;;;;13.99;71.14;99523.33;1747859;82;21030;-40
2021/05/24 04:02:41;;;;;;;5.35;3.30;;;;;;;14.03;71.28;99524.17;1747915;82;21099;-40
2021/05/24 04:05:30;;;;;;;4.58;3.30;;;;;;;13.99;71.55;99528.03;1748591;80;20975;-40
2021/05/24 04:07:53;;;;;;;5.03;3.08;;;;;;;13.95;71.68;99530.70;1756761;80;21022;-40
2021/05/24 04:10:20;;;;;;;5.37;3.20;;;;;;;13.96;71.76;99540.45;1747669;82;21782;-40
2021/05/24 04:12:48;;;;;;;4.97;3.30;;;;;;;13.94;71.65;99544.91;1747732;82;21011;-40
2021/05/24 04:15:15;;;;;;;5.95;3.52;;;;;;;13.91;72.02;99545.67;1747821;80;21053;-40
2021/05/24 04:17:43;;;;;;;7.40;3.75;;;;;;;13.88;72.49;99545.08;1747802;82;20990;-40
2021/05/24 04:20:12;;;;;;;5.10;2.92;;;;;;;13.88;72.61;99542.34;1777234;80;21107;-40
2021/05/24 04:22:40;;;;;;;6.08;3.20;;;;;;;13.89;72.46;99547.22;1778731;80;21075;-40
2021/05/24 04:25:08;;;;;;;7.12;3.55;;;;;;;13.88;72.66;99545.65;1761810;80;20959;-40
2021/05/24 04:27:36;;;;;;;5.22;3.12;;;;;;;13.90;72.63;99547.41;1748144;80;20939;-40
2021/05/24 04:30:08;;;;;;;4.10;3.15;;;;;;;13.50;72.43;99488.30;1768443;80;21549;-40
2021/05/24 04:32:34;;;;;;;6.30;3.22;;;;;;;13.92;72.38;99555.42;1778791;80;21035;-40
2021/05/24 04:35:01;;;;;;;9.95;3.15;;;;;;;13.97;72.41;99552.14;1778812;80;21701;-40
2021/05/24 04:37:29;;;;;;;5.42;2.98;;;;;;;13.94;72.37;99556.42;1750134;80;21026;-40
2021/05/24 04:39:56;;;;;;;5.87;3.20;;;;;;;13.89;72.55;99565.70;1747806;80;20983;-40
2021/05/24 04:42:23;;;;;;;4.12;2.98;;;;;;;13.87;72.76;99568.61;1748934;80;21003;-40
2021/05/24 04:44:50;;;;;;;9.78;2.70;;;;;;;13.87;72.70;99567.24;1747970;80;21106;-41
2021/05/24 04:47:18;;;;;;;5.53;2.75;;;;;;;13.86;72.70;99571.12;1747962;82;21631;-40
2021/05/24 04:49:50;;;;;;;4.65;2.70;;;;;;;13.84;72.90;99572.09;1748104;82;21693;-40
2021/05/24 04:52:14;;;;;;;3.67;2.67;;;;;;;13.86;72.99;99578.72;1747284;82;21608;-40
2021/05/24 04:54:41;;;;;;;4.30;2.72;;;;;;;13.93;73.01;99574.71;1748030;80;21049;-40
2021/05/24 04:57:07;;;;;;;4.40;2.90;;;;;;;13.99;72.87;99581.94;1752608;80;21091;-40
2021/05/24 04:59:34;;;;;;;4.40;2.90;;;;;;;13.96;73.18;99584.06;1748211;82;21706;-40
2021/05/24 05:02:01;;;;;;;3.72;2.50;;;;;;;13.95;73.02;99589.30;1748067;82;20999;-40
2021/05/24 05:04:28;;;;;;;3.65;2.47;;;;;;;13.97;72.90;99595.75;1748054;80;21026;-40
2021/05/24 05:06:57;;;;;;;4.40;2.80;;;;;;;14.02;72.75;99600.86;1748072;82;21088;-40
2021/05/24 05:09:27;;;;;;;4.97;2.72;;;;;;;14.02;73.06;99600.28;1772259;80;21541;-40
2021/05/24 05:11:55;;;;;;;4.58;2.80;;;;;;;14.03;73.00;99603.22;1761162;80;21836;-40
2021/05/24 05:14:23;;;;;;;5.53;2.77;;;;;;;14.03;72.89;99614.70;1748024;82;20963;-40
2021/05/24 05:16:50;;;;;;;4.53;2.80;;;;;;;14.09;73.00;99615.91;1748025;80;20967;-40
2021/05/24 05:19:18;;;;;;;3.75;2.62;;;;;;;14.11;72.93;99623.14;1745005;80;21031;-40
2021/05/24 05:21:47;;;;;;;6.67;3.02;;;;;;;14.09;72.88;99626.23;1748346;80;20975;-40
2021/05/24 05:24:15;;;;;;;4.40;2.70;;;;;;;14.06;72.71;99631.08;1747919;82;21062;-40
2021/05/24 05:26:42;;;;;;;7.58;2.87;;;;;;;14.05;72.71;99641.77;1747958;82;21576;-40
2021/05/24 05:29:10;;;;;;;4.25;2.67;;;;;;;14.05;72.87;99637.69;1748177;82;21098;-40
2021/05/24 05:31:37;;;;;;;7.72;3.17;;;;;;;14.00;72.96;99642.70;1760784;80;21306;-40
2021/05/24 05:34:04;;;;;;;5.92;2.80;;;;;;;13.99;73.13;99643.27;1778913;80;20948;-40
2021/05/24 05:36:32;;;;;;;5.50;3.45;;;;;;;14.04;73.18;99651.71;1761467;79;21739;-40
2021/05/24 05:39:00;;;;;;;4.45;2.90;;;;;;;14.05;73.07;99659.50;1759606;80;21026;-40
2021/05/24 05:41:26;;;;;;;4.65;3.20;;;;;;;13.99;73.26;99656.90;1709698;83;20980;-40
2021/05/24 05:43:53;;;;;;;5.25;3.05;;;;;;;13.96;73.75;99657.66;1773134;80;21073;-40
2021/05/24 05:46:20;;;;;;;5.55;2.90;;;;;;;14.01;73.67;99661.98;1744690;82;21074;-40
2021/05/24 05:48:46;;;;;;;4.67;2.67;;;;;;;14.07;73.31;99664.58;1737554;82;21521;-40
2021/05/24 05:51:13;;;;;;;3.25;2.50;;;;;;;14.07;73.34;99671.40;1743264;80;21077;-40
2021/05/24 05:53:40;;;;;;;4.72;2.47;;;;;;;14.09;73.68;99678.03;1742403;82;20987;-40
2021/05/24 05:56:07;;;;;;;5.75;2.45;;;;;;;14.11;73.02;99673.58;1742436;82;21936;-41
2021/05/24 05:58:34;;;;;;;2.92;2.12;;;;;;;14.13;73.25;99679.45;1742429;82;21105;-40
2021/05/24 06:01:04;;;;;;;3.90;2.37;;;;;;;14.14;73.37;99678.27;1748797;79;21040;-40
2021/05/24 06:03:31;;;;;;;3.60;2.42;;;;;;;14.13;73.44;99688.42;1742650;82;21034;-40
2021/05/24 06:05:58;;;;;;;3.05;1.95;;;;;;;14.14;73.04;99691.90;1743236;80;21098;-40
2021/05/24 06:08:25;;;;;;;2.33;2.08;;;;;;;14.16;73.37;99697.77;1757166;80;21551;-40
2021/05/24 06:10:52;;;;;;;5.85;2.72;;;;;;;14.20;73.40;99708.92;1772947;80;21023;-40
2021/05/24 06:13:18;;;;;;;3.22;2.10;;;;;;;14.20;73.42;99708.92;1773162;80;21205;-40
2021/05/24 06:15:45;;;;;;;4.50;2.00;;;;;;;14.20;73.21;99719.04;1770179;80;21560;-40
2021/05/24 06:18:12;;;;;;;2.83;1.87;;;;;;;14.22;73.34;99717.52;1770795;80;20960;-40
2021/05/24 06:20:43;;;;;;;2.95;2.00;;;;;;;14.29;73.11;99719.52;1744806;80;21067;-40
2021/05/24 06:23:08;;;;;;;3.75;1.82;;;;;;;14.27;73.22;99724.58;1742599;81;20984;-40
2021/05/24 06:25:36;;;;;;;2.25;1.72;;;;;;;14.24;73.31;99728.83;1742453;82;21059;-40
2021/05/24 06:28:03;;;;;;;6.37;2.33;;;;;;;14.25;73.49;99730.40;1742414;82;21035;-40
2021/05/24 06:30:30;;;;;;;4.15;2.22;;;;;;;14.31;73.48;99727.55;1744127;80;21062;-40
2021/05/24 06:32:57;;;;;;;3.90;2.42;;;;;;;14.34;73.89;99732.23;1742350;82;21050;-40
2021/05/24 06:35:24;;;;;;;5.62;2.70;;;;;;;14.37;74.18;99728.02;1744345;80;20967;-40
2021/05/24 06:37:51;;;;;;;3.72;2.10;;;;;;;14.48;73.85;99729.45;1742464;82;21113;-40
2021/05/24 06:40:17;;;;;;;3.25;2.10;;;;;;;14.56;72.88;99729.74;1759903;80;21091;-40
2021/05/24 06:42:45;;;;;;;9.53;2.10;;;;;;;14.56;73.40;99731.11;1772941;80;20984;-40
2021/05/24 06:45:14;;;;;;;2.20;1.85;;;;;;;14.59;73.46;99735.22;1757061;80;21015;-40
2021/05/24 06:47:41;;;;;;;3.55;1.65;;;;;;;14.68;73.33;99738.41;1750699;82;20975;-40
2021/05/24 06:50:09;;;;;;;4.12;2.10;;;;;;;14.75;72.96;99743.16;1750622;82;21059;-40
2021/05/24 06:52:36;;;;;;;3.92;2.00;;;;;;;14.71;73.07;99749.17;1750542;82;21638;-40
2021/05/24 06:55:04;;;;;;;5.40;1.92;;;;;;;14.72;73.26;99747.98;1750058;80;20960;-40
2021/05/24 06:57:31;;;;;;;3.77;1.77;;;;;;;14.74;73.17;99751.92;1749174;82;21047;-40
2021/05/24 06:59:58;;;;;;;2.98;1.80;;;;;;;14.82;73.01;99762.88;1749408;80;21063;-40
2021/05/24 07:02:24;;;;;;;3.55;1.75;;;;;;;14.82;72.42;99763.67;1768353;80;21046;-40
2021/05/24 07:04:51;;;;;;;2.15;1.60;;;;;;;14.79;72.15;99760.34;1761531;80;21643;-40
2021/05/24 07:07:18;;;;;;;5.55;1.35;;;;;;;14.82;73.40;99766.40;1752103;80;20951;-40
2021/05/24 07:09:45;;;;;;;4.33;1.52;;;;;;;14.93;73.04;99770.59;1750707;82;21054;-40
2021/05/24 07:12:12;;;;;;;3.92;1.80;;;;;;;15.00;72.56;99772.81;1750688;82;21584;-40
2021/05/24 07:14:42;;;;;;;4.15;1.60;;;;;;;15.01;72.60;99771.63;1752149;80;21096;-40
2021/05/24 07:17:07;;;;;;;4.15;1.60;;;;;;;15.07;72.72;99774.20;1766053;80;21590;-40
2021/05/24 07:19:35;;;;;;;3.27;1.55;;;;;;;15.16;72.70;99770.56;1758403;80;21042;-40
2021/05/24 07:22:03;;;;;;;2.77;1.40;;;;;;;15.27;72.19;99773.95;1750863;82;21670;-40
2021/05/24 07:24:29;;;;;;;3.45;1.72;;;;;;;15.33;72.43;99773.22;1749172;82;21010;-40
2021/05/24 07:26:56;;;;;;;2.27;1.55;;;;;;;15.38;71.49;99774.23;1750807;82;21132;-41
2021/05/24 07:29:22;;;;;;;2.47;1.45;;;;;;;15.42;71.47;99779.13;1749897;82;20975;-41
2021/05/24 07:31:49;;;;;;;4.12;1.72;;;;;;;15.44;70.04;99781.48;1750253;82;21063;-40
2021/05/24 07:34:15;;;;;;;3.37;1.30;;;;;;;15.40;70.66;99773.83;1750332;82;21102;-40
2021/05/24 07:36:42;;;;;;;3.25;1.67;;;;;;;15.37;70.22;99775.39;1740952;82;21624;-40
2021/05/24 07:39:10;;;;;;;4.17;1.52;;;;;;;15.31;69.99;99778.27;1736630;82;20995;-40
2021/05/24 07:41:37;;;;;;;2.33;1.30;;;;;;;15.33;70.59;99780.05;1743955;82;21156;-40
2021/05/24 07:44:05;;;;;;;3.17;1.30;;;;;;;15.38;69.98;99777.55;1750905;82;20943;-40
2021/05/24 07:46:33;;;;;;;4.00;1.82;;;;;;;15.43;70.44;99775.23;1747695;82;21112;-40
2021/05/24 07:49:00;;;;;;;3.70;1.60;;;;;;;15.41;69.95;99781.66;1741010;82;21572;-40
2021/05/24 07:51:26;;;;;;;6.58;1.62;;;;;;;15.38;70.18;99780.27;1727046;82;21062;-40
2021/05/24 07:53:53;;;;;;;1.65;1.42;;;;;;;15.40;70.23;99786.91;1712960;83;21007;-41
2021/05/24 07:56:20;;;;;;;2.55;1.50;;;;;;;15.43;69.84;99788.11;1713042;83;21129;-41
2021/05/24 07:58:48;;;;;;;2.72;1.52;;;;;;;15.41;70.03;99801.36;1713002;83;21062;-40
2021/05/24 08:01:14;;;;;;;2.10;1.30;;;;;;;15.40;70.17;99808.77;1717859;82;21086;-40
2021/05/24 08:03:41;;;;;;;2.08;1.27;;;;;;;15.40;69.14;99812.08;1712963;83;21133;-40
2021/05/24 08:06:08;;;;;;;3.80;1.70;;;;;;;15.43;69.91;99819.53;1713036;83;20995;-41
2021/05/24 08:08:34;;;;;;;2.33;1.55;;;;;;;15.47;70.35;99820.34;1740300;82;21012;-41
2021/05/24 08:11:01;;;;;;;1.72;1.15;;;;;;;15.60;69.42;99814.20;1722012;82;21002;-40
2021/05/24 08:13:29;;;;;;;3.70;1.45;;;;;;;15.69;68.61;99818.53;1730707;82;21003;-46
2021/05/24 08:15:55;;;;;;;4.85;1.47;;;;;;;15.73;67.60;99822.88;1729078;82;21119;-40
2021/05/24 08:18:23;;;;;;;1.77;1.40;;;;;;;15.79;67.51;99828.16;1733482;82;21632;-40
2021/05/24 08:20:50;;;;;;;2.02;1.10;;;;;;;15.85;67.17;99832.11;1719839;82;20979;-40
2021/05/24 08:23:17;;;;;;;2.80;1.40;;;;;;;15.91;65.74;99836.05;1712740;83;21121;-40
2021/05/24 08:25:44;;;;;;;2.12;1.20;;;;;;;15.95;65.69;99843.68;1714224;82;21889;-40
2021/05/24 08:28:11;;;;;;;2.85;1.60;;;;;;;15.66;66.51;99800.95;1728874;82;21132;-40
2021/05/24 08:30:38;;;;;;;2.92;1.40;;;;;;;15.99;66.01;99860.89;1715660;82;21007;-40
2021/05/24 08:33:05;;;;;;;2.72;1.30;;;;;;;16.01;65.71;99863.25;1742612;82;20984;-40
2021/05/24 08:35:31;;;;;;;3.27;1.40;;;;;;;16.02;66.32;99872.42;1730419;82;20955;-40
2021/05/24 08:37:58;;;;;;;2.08;1.30;;;;;;;16.14;66.33;99867.79;1742537;82;21605;-40
2021/05/24 08:40:27;;;;;;;5.92;1.30;;;;;;;16.26;66.31;99868.83;1737161;82;21581;-40
2021/05/24 08:42:58;;;;;;;2.90;1.40;;;;;;;16.37;66.09;99879.22;1719535;82;21062;-40
2021/05/24 08:45:29;;;;;;;2.83;1.62;;;;;;;16.43;64.37;99876.31;1728664;82;20968;-40
2021/05/24 08:47:55;;;;;;;1.77;1.20;;;;;;;16.45;64.68;99879.45;1719952;82;21039;-40
2021/05/24 08:50:22;;;;;;;2.02;1.27;;;;;;;16.47;64.02;99883.36;1727361;82;21031;-40
2021/05/24 08:52:48;;;;;;;2.60;1.52;;;;;;;16.55;64.50;99885.55;1735527;82;21091;-40
2021/05/24 08:55:16;;;;;;;3.08;1.32;;;;;;;16.69;63.54;99880.14;1729997;82;21577;-40
2021/05/24 08:57:43;;;;;;;2.33;1.45;;;;;;;16.81;63.49;99888.56;1730636;82;21046;-40
2021/05/24 09:00:16;;;;;;;2.67;1.30;;;;;;;16.82;61.40;99884.08;1739331;82;21103;-40
2021/05/24 09:02:48;;;;;;;3.58;1.35;;;;;;;16.86;62.35;99889.55;1737450;82;20999;-40
2021/05/24 09:05:15;;;;;;;4.00;1.40;;;;;;;16.91;63.25;99891.91;1733099;82;21007;-40
2021/05/24 09:07:53;;;;;;;2.00;1.35;;;;;;;16.98;62.01;99893.89;1733088;82;21043;-40
2021/05/24 09:10:23;;;;;;;1.12;0.90;;;;;;;17.04;61.82;99889.59;1728456;82;21090;-40
2021/05/24 09:12:50;;;;;;;1.65;1.02;;;;;;;17.05;61.00;99892.52;1737820;82;21103;-40
2021/05/24 09:15:18;;;;;;;1.65;1.00;;;;;;;17.09;61.06;99894.70;1736213;82;21625;-40
2021/05/24 09:17:54;;;;;;;1.37;1.17;;;;;;;17.20;61.81;99894.09;1699560;83;21010;-41
2021/05/24 09:20:25;;;;;;;1.75;1.17;;;;;;;17.33;61.72;99893.92;1702094;84;21001;-40
2021/05/24 09:23:17;;;;;;;3.95;1.20;;;;;;;17.37;60.42;99899.60;1702614;84;20957;-40
2021/05/24 09:25:56;;;;;;;2.02;1.25;;;;;;;17.36;59.04;99904.09;1707953;82;21585;-40
2021/05/24 09:28:28;;;;;;;2.35;0.98;;;;;;;17.36;59.50;99901.36;1724769;82;20979;-40
2021/05/24 09:30:58;;;;;;;1.60;1.10;;;;;;;17.34;58.88;99896.84;1711118;83;21691;-40
2021/05/24 09:33:25;;;;;;;1.60;1.00;;;;;;;17.41;59.60;99901.55;1710867;83;21624;-40
2021/05/24 09:35:52;;;;;;;2.70;1.10;;;;;;;17.52;58.62;99899.59;1711593;82;21107;-40
2021/05/24 09:38:24;;;;;;;3.02;0.95;;;;;;;17.59;58.79;99905.88;1714456;82;21043;-40
2021/05/24 09:40:57;;;;;;;1.60;0.90;;;;;;;17.66;58.28;99907.25;1740585;82;21035;-40
2021/05/24 09:43:32;;;;;;;15.03;11.70;;;;;;;17.68;55.63;99900.77;1740226;82;21272;-41
2021/05/24 09:46:22;;;;;;;2.20;1.00;;;;;;;17.72;57.88;99908.39;1732468;82;20956;-40
2021/05/24 09:48:56;;;;;;;1.60;1.00;;;;;;;17.68;55.56;99915.84;1735344;82;21027;-40
2021/05/24 09:51:25;;;;;;;1.62;1.17;;;;;;;17.60;56.20;99917.05;1731091;82;20975;-40
2021/05/24 09:54:12;;;;;;;2.95;1.20;;;;;;;17.59;57.79;99920.95;1716485;82;21003;-40
2021/05/24 09:56:43;;;;;;;1.60;0.90;;;;;;;17.62;57.97;99920.16;1732477;82;21094;-40
2021/05/24 09:59:15;;;;;;;2.47;1.27;;;;;;;17.62;56.41;99909.80;1739288;82;21060;-40
2021/05/24 10:01:47;;;;;;;3.20;1.00;;;;;;;17.62;56.67;99911.93;1714504;82;20975;-40
2021/05/24 10:04:19;;;;;;;1.50;1.00;;;;;;;17.72;56.92;99902.91;1738006;82;21121;-40
2021/05/24 10:06:46;;;;;;;2.08;0.90;;;;;;;17.94;58.34;99903.67;1738503;82;20964;-40
2021/05/24 10:09:14;;;;;;;3.47;1.02;;;;;;;18.18;55.10;99894.59;1720557;82;21886;-40
2021/05/24 10:11:45;;;;;;;2.40;1.07;;;;;;;18.29;54.96;99893.18;1717390;82;21035;-40
2021/05/24 10:14:16;;;;;;;4.33;1.00;;;;;;;18.32;54.41;99899.83;1712599;82;21055;-40
2021/05/24 10:16:49;;;;;;;3.70;1.07;;;;;;;18.44;54.82;99883.70;1734405;82;21580;-40
2021/05/24 10:19:18;;;;;;;1.32;1.10;;;;;;;18.63;55.44;99884.63;1740379;82;21561;-41
2021/05/24 10:21:48;;;;;;;4.57;1.27;;;;;;;18.84;54.44;99888.41;1740857;82;21074;-40
2021/05/24 10:24:15;;;;;;;1.57;0.95;;;;;;;18.99;53.96;99883.80;1732014;82;21095;-40
2021/05/24 10:26:43;;;;;;;1.32;1.17;;;;;;;19.13;53.67;99885.66;1729136;82;21640;-40
2021/05/24 10:29:11;;;;;;;3.58;1.00;;;;;;;19.35;53.75;99891.78;1740336;82;21035;-40
2021/05/24 10:31:39;;;;;;;1.82;0.90;;;;;;;19.54;53.39;99889.88;1740902;82;21052;-40
2021/05/24 10:34:21;;;;;;;2.98;1.20;;;;;;;19.68;51.81;99888.95;1737802;82;21096;-40
2021/05/24 10:37:06;;;;;;;2.20;1.27;;;;;;;19.82;53.25;99901.20;1716964;82;21160;-40
2021/05/24 10:39:47;;;;;;;2.75;1.22;;;;;;;20.03;49.67;99885.84;1740384;82;20979;-40
2021/05/24 10:42:14;;;;;;;1.57;0.90;;;;;;;20.05;50.35;99892.30;1734246;82;21620;-41
2021/05/24 10:44:47;;;;;;;2.80;1.15;;;;;;;20.09;51.56;99899.33;1739034;82;21029;-41
2021/05/24 10:47:24;;;;;;;4.30;1.25;;;;;;;20.25;51.04;99900.13;1718471;82;21165;-41
2021/05/24 10:50:07;;;;;;;1.60;1.07;;;;;;;20.45;50.09;99899.73;1734255;82;21347;-40
2021/05/24 10:52:38;;;;;;;4.85;1.25;;;;;;;20.59;49.20;99896.00;1740559;82;21604;-40
2021/05/24 10:55:29;;;;;;;2.75;1.00;;;;;;;20.74;47.94;99884.98;1741420;82;20971;-41
2021/05/24 10:57:58;;;;;;;1.55;1.07;;;;;;;20.87;47.29;99900.34;1727690;82;21565;-40
2021/05/24 11:02:26;;;;;;;2.10;1.10;;;;;;;21.01;49.38;99894.02;1773804;79;22660;-40
2021/05/24 11:04:59;;;;;;;2.52;1.00;;;;;;;21.15;49.63;99890.31;1732917;82;21030;-41
2021/05/24 11:07:44;;;;;;;2.75;1.07;;;;;;;21.26;47.44;99889.53;1719911;82;21137;-41
2021/05/24 11:10:18;;;;;;;2.15;0.90;;;;;;;21.18;47.42;99897.14;1747980;82;20992;-41
2021/05/24 11:13:12;;;;;;;3.85;1.10;;;;;;;20.99;47.71;99896.42;1735884;82;21573;-41
2021/05/24 11:15:42;;;;;;;1.85;1.00;;;;;;;20.83;48.20;99905.31;1732730;82;20979;-41
2021/05/24 11:18:19;;;;;;;3.80;1.07;;;;;;;20.53;47.55;99903.94;1729265;82;21054;-41
2021/05/24 11:21:02;;;;;;;3.67;1.00;;;;;;;20.26;47.64;99910.75;1718641;82;21149;-41
2021/05/24 11:26:33;;;;;;;3.12;1.10;;;;;;;19.58;48.45;99911.84;1731305;82;20928;-40
2021/05/24 11:29:15;;;;;;;2.95;0.93;;;;;;;19.30;49.35;99916.95;1725128;82;21070;-40
2021/05/24 11:31:46;;;;;;;2.60;1.10;;;;;;;19.04;51.08;99932.05;1718138;82;21054;-40
2021/05/24 11:34:34;;;;;;;3.00;1.00;;;;;;;18.85;51.30;99931.18;1719558;82;21065;-40
2021/05/24 11:37:08;;;;;;;2.20;0.95;;;;;;;18.74;52.17;99931.82;1718602;82;21062;-41
2021/05/24 11:39:42;;;;;;;3.20;1.00;;;;;;;18.68;53.03;99927.95;1742994;82;21639;-40
2021/05/24 11:42:11;;;;;;;1.87;0.95;;;;;;;18.69;53.18;99933.64;1708758;82;21549;-40
2021/05/24 11:44:50;;;;;;;2.00;1.10;;;;;;;18.70;53.49;99941.45;1747949;82;21632;-41
2021/05/24 11:47:16;;;;;;;3.33;1.10;;;;;;;18.72;52.87;99941.07;1724575;82;21583;-41